Time;durP1;ratioP1;P1;durP2;ratioP2;P2;SDS_P1;SDS_P2;PMS_P1;PMS_P2;Temp;Humidity;BMP_temperature;BMP_pressure;BME280_temperature;BME280_humidity;BME280_pressure;Samples;Min_cycle;Max_cycle;Signal;HPM_P1;HPM_P2
2022/04/11 00:00:01;;;;;;;2.13;1.90;;;7.50;47.50;;;;;;5066472;28;20513;-79
2022/04/11 00:02:29;;;;;;;2.43;2.00;;;7.40;47.60;;;;;;5065404;28;20597;-79
2022/04/11 00:04:57;;;;;;;2.40;1.87;;;7.50;47.70;;;;;;5066730;28;20439;-80
2022/04/11 00:07:27;;;;;;;3.70;2.00;;;7.40;49.00;;;;;;5063582;28;20446;-80
2022/04/11 00:09:55;;;;;;;2.57;2.27;;;7.40;50.10;;;;;;5060793;28;20451;-79
2022/04/11 00:12:23;;;;;;;2.10;1.80;;;7.30;51.30;;;;;;5063883;28;20451;-80
2022/04/11 00:14:51;;;;;;;4.10;2.40;;;7.40;51.10;;;;;;5062844;28;20982;-81
2022/04/11 00:17:19;;;;;;;2.83;2.60;;;7.50;51.50;;;;;;5064024;28;20451;-78
2022/04/11 00:19:48;;;;;;;2.87;2.50;;;7.40;53.00;;;;;;5065601;28;20458;-80
2022/04/11 00:22:16;;;;;;;2.90;2.60;;;7.40;53.00;;;;;;5064788;28;20511;-80
2022/04/11 00:24:45;;;;;;;7.07;2.83;;;7.40;51.20;;;;;;5062843;28;20487;-80
2022/04/11 00:27:13;;;;;;;3.00;2.80;;;7.30;54.00;;;;;;5061653;28;21085;-79
2022/04/11 00:29:41;;;;;;;2.30;2.03;;;7.60;54.70;;;;;;5059082;28;20517;-79
2022/04/11 00:32:10;;;;;;;2.83;2.50;;;7.20;53.40;;;;;;5061468;28;20457;-79
2022/04/11 00:34:38;;;;;;;2.20;2.00;;;7.30;52.80;;;;;;5060439;28;20486;-80
2022/04/11 00:37:06;;;;;;;3.77;2.10;;;7.30;54.30;;;;;;5063498;28;20878;-80
2022/04/11 00:39:34;;;;;;;2.90;2.37;;;7.30;54.30;;;;;;5063615;28;20454;-79
2022/04/11 00:42:10;;;;;;;3.83;2.50;;;7.20;52.00;;;;;;5065729;28;20458;-80
2022/04/11 00:44:38;;;;;;;7.23;2.43;;;7.20;50.60;;;;;;5062683;28;20481;-80
2022/04/11 00:47:07;;;;;;;3.07;2.33;;;7.20;53.50;;;;;;5056419;28;20450;-79
2022/04/11 00:49:35;;;;;;;3.47;2.30;;;7.10;53.20;;;;;;5062417;28;20458;-81
2022/04/11 00:52:06;;;;;;;3.08;1.90;;;7.10;53.50;;;;;;5056798;28;20463;-80
2022/04/11 00:54:35;;;;;;;2.90;2.17;;;7.10;54.50;;;;;;5057654;28;20275;-79
2022/04/11 00:57:04;;;;;;;3.43;2.93;;;7.20;56.10;;;;;;5064520;28;20463;-79
2022/04/11 00:59:34;;;;;;;3.10;2.50;;;7.10;56.80;;;;;;5061011;28;20458;-79
2022/04/11 01:02:05;;;;;;;2.17;2.07;;;7.10;57.10;;;;;;5062841;28;20458;-81
2022/04/11 01:04:34;;;;;;;2.90;2.50;;;7.10;55.20;;;;;;5063497;28;20474;-82
2022/04/11 01:07:05;;;;;;;2.13;1.90;;;7.00;55.90;;;;;;5064101;28;20500;-81
2022/04/11 01:09:33;;;;;;;2.83;2.40;;;7.00;57.90;;;;;;5057036;28;20488;-81
2022/04/11 01:12:03;;;;;;;2.67;2.40;;;6.90;56.60;;;;;;5062337;28;20533;-80
2022/04/11 01:14:31;;;;;;;2.40;2.20;;;6.90;56.70;;;;;;5062890;28;20493;-80
2022/04/11 01:17:00;;;;;;;2.93;2.17;;;6.90;60.50;;;;;;5062903;28;20463;-80
2022/04/11 01:19:28;;;;;;;4.20;2.63;;;6.80;59.30;;;;;;5062347;28;20541;-80
2022/04/11 01:21:58;;;;;;;2.33;2.23;;;6.80;58.50;;;;;;5057628;28;20444;-79
2022/04/11 01:24:29;;;;;;;2.78;2.50;;;6.80;59.60;;;;;;5061782;28;20467;-80
2022/04/11 01:26:57;;;;;;;3.73;2.03;;;6.80;58.80;;;;;;5065136;28;20200;-80
2022/04/11 01:29:26;;;;;;;4.93;2.53;;;7.10;60.70;;;;;;5065758;28;20466;-80
2022/04/11 01:31:54;;;;;;;3.17;1.80;;;6.80;61.10;;;;;;5064940;28;20861;-80
2022/04/11 01:34:22;;;;;;;4.63;2.80;;;6.80;61.70;;;;;;5055368;28;20221;-79
2022/04/11 01:36:50;;;;;;;3.67;2.70;;;6.80;63.10;;;;;;5063108;28;20851;-80
2022/04/11 01:39:20;;;;;;;3.03;2.20;;;6.80;61.30;;;;;;5061768;28;20526;-80
2022/04/11 01:41:49;;;;;;;2.57;2.37;;;6.80;62.30;;;;;;5062727;28;20973;-80
2022/04/11 01:44:18;;;;;;;3.90;2.63;;;6.80;62.40;;;;;;5059143;28;20524;-79
2022/04/11 01:46:50;;;;;;;2.50;2.30;;;6.80;65.00;;;;;;5062558;28;20496;-80
2022/04/11 01:49:18;;;;;;;2.50;2.20;;;6.80;66.40;;;;;;5064759;28;20287;-80
2022/04/11 01:51:46;;;;;;;4.35;2.25;;;6.70;69.50;;;;;;5054200;28;20532;-80
2022/04/11 01:54:14;;;;;;;3.40;2.70;;;6.70;70.90;;;;;;5058526;28;20227;-80
2022/04/11 01:56:44;;;;;;;4.47;2.87;;;6.60;70.60;;;;;;5062354;28;20486;-80
2022/04/11 01:59:14;;;;;;;2.83;2.57;;;6.60;72.60;;;;;;5062992;28;20465;-80
2022/04/11 02:01:43;;;;;;;2.80;2.55;;;6.60;74.20;;;;;;5062083;28;20454;-80
2022/04/11 02:04:11;;;;;;;3.38;2.60;;;7.00;76.00;;;;;;5056000;28;20224;-79
2022/04/11 02:06:39;;;;;;;2.43;2.20;;;6.70;78.70;;;;;;5061018;28;20192;-80
2022/04/11 02:09:07;;;;;;;2.85;2.65;;;6.70;77.60;;;;;;5057253;28;20485;-80
2022/04/11 02:11:36;;;;;;;2.20;2.00;;;6.70;77.80;;;;;;5061205;28;20201;-79
2022/04/11 02:14:06;;;;;;;3.70;1.93;;;6.80;74.30;;;;;;5063224;28;20554;-78
2022/04/11 02:16:34;;;;;;;3.50;1.88;;;7.00;70.70;;;;;;5059625;28;20983;-80
2022/04/11 02:19:02;;;;;;;4.50;4.10;;;7.00;71.60;;;;;;5059225;28;20595;-79
2022/04/11 02:21:30;;;;;;;5.47;3.20;;;6.70;73.00;;;;;;5057104;28;20840;-80
2022/04/11 02:23:58;;;;;;;6.07;3.27;;;7.00;72.50;;;;;;5062123;28;20482;-80
2022/04/11 02:26:26;;;;;;;2.80;2.45;;;7.10;68.20;;;;;;5055532;28;20462;-78
2022/04/11 02:28:54;;;;;;;4.50;2.55;;;7.00;66.10;;;;;;5060686;28;20205;-79
2022/04/11 02:31:24;;;;;;;3.70;2.13;;;7.00;69.60;;;;;;5061561;28;20704;-81
2022/04/11 02:33:52;;;;;;;3.70;2.60;;;7.10;68.50;;;;;;5062924;28;20560;-80
2022/04/11 02:36:20;;;;;;;3.45;3.10;;;7.30;72.50;;;;;;5062299;28;20585;-80
2022/04/11 02:38:49;;;;;;;2.50;2.20;;;7.20;74.20;;;;;;5057647;28;20278;-80
2022/04/11 02:41:17;;;;;;;2.47;1.98;;;7.00;78.00;;;;;;5057525;28;20440;-79
2022/04/11 02:43:46;;;;;;;2.30;2.07;;;7.10;69.00;;;;;;5061404;28;20232;-80
2022/04/11 02:46:14;;;;;;;2.70;1.70;;;7.10;73.50;;;;;;5056254;28;20534;-79
2022/04/11 02:48:45;;;;;;;3.30;2.20;;;7.10;77.50;;;;;;5062231;28;20533;-80
2022/04/11 02:51:13;;;;;;;3.25;2.00;;;7.10;77.30;;;;;;5052863;28;21279;-80
2022/04/11 02:53:41;;;;;;;3.30;2.23;;;7.20;77.90;;;;;;5065370;28;20584;-80
2022/04/11 02:56:09;;;;;;;4.60;2.42;;;7.10;79.30;;;;;;5059213;28;20478;-80
2022/04/11 02:58:37;;;;;;;3.95;2.63;;;7.10;79.80;;;;;;5064902;28;20193;-79
2022/04/11 03:01:05;;;;;;;2.53;2.20;;;7.10;77.50;;;;;;5063360;28;20200;-80
2022/04/11 03:03:36;;;;;;;2.40;2.13;;;7.10;78.40;;;;;;5064517;28;20506;-79
2022/04/11 03:06:05;;;;;;;3.05;2.60;;;7.00;77.40;;;;;;5061497;28;20471;-79
2022/04/11 03:08:33;;;;;;;8.63;2.93;;;7.00;81.10;;;;;;5066890;28;20197;-80
2022/04/11 03:11:01;;;;;;;2.40;2.03;;;7.00;80.10;;;;;;5059336;28;20461;-81
2022/04/11 03:13:29;;;;;;;2.95;2.70;;;7.00;74.00;;;;;;5061730;28;20478;-78
2022/04/11 03:15:58;;;;;;;2.27;2.00;;;7.00;75.10;;;;;;5061664;28;20221;-80
2022/04/11 03:18:26;;;;;;;2.23;2.00;;;7.00;79.40;;;;;;5066705;28;20515;-79
2022/04/11 03:20:54;;;;;;;2.93;2.10;;;7.00;82.90;;;;;;5063795;28;20458;-79
2022/04/11 03:23:24;;;;;;;4.33;2.20;;;7.00;82.80;;;;;;5058031;28;20475;-79
2022/04/11 03:25:52;;;;;;;2.53;2.27;;;7.00;86.60;;;;;;5065240;28;20465;-80
2022/04/11 03:28:21;;;;;;;2.45;2.22;;;7.00;87.80;;;;;;5063406;28;20458;-81
2022/04/11 03:30:49;;;;;;;5.43;2.50;;;7.10;87.00;;;;;;5061831;28;20205;-79
2022/04/11 03:33:17;;;;;;;4.20;2.22;;;7.20;90.30;;;;;;5052143;28;20474;-78
2022/04/11 03:35:45;;;;;;;2.93;2.30;;;7.10;89.10;;;;;;5061808;28;20282;-80
2022/04/11 03:38:13;;;;;;;2.97;2.00;;;7.10;90.20;;;;;;5067514;28;20507;-80
2022/04/11 03:40:43;;;;;;;4.40;2.77;;;7.10;88.10;;;;;;5066642;28;20212;-79
2022/04/11 03:43:11;;;;;;;4.70;2.60;;;7.00;90.10;;;;;;5065527;28;20478;-79
2022/04/11 03:45:39;;;;;;;3.03;2.40;;;7.00;90.60;;;;;;5064024;28;20200;-78
2022/04/11 03:48:08;;;;;;;3.13;2.20;;;6.90;91.90;;;;;;5066547;28;20292;-79
2022/04/11 03:50:37;;;;;;;4.93;2.30;;;6.90;92.80;;;;;;5063296;28;20582;-80
2022/04/11 03:53:05;;;;;;;2.27;2.07;;;6.80;91.60;;;;;;5067091;28;21076;-80
2022/04/11 03:55:33;;;;;;;4.43;2.10;;;6.90;93.40;;;;;;5062641;28;20479;-79
2022/04/11 03:58:03;;;;;;;3.70;2.30;;;6.90;91.10;;;;;;5061446;28;21081;-78
2022/04/11 04:00:31;;;;;;;2.10;2.00;;;6.90;92.00;;;;;;5060440;28;20516;-77
2022/04/11 04:03:06;;;;;;;3.23;2.13;;;6.90;92.80;;;;;;5056323;28;20468;-78
2022/04/11 04:05:39;;;;;;;2.63;2.40;;;6.90;92.60;;;;;;5055701;28;20450;-79
2022/04/11 04:08:08;;;;;;;2.40;2.30;;;6.90;93.00;;;;;;5061936;28;20446;-80
2022/04/11 04:10:36;;;;;;;4.68;3.10;;;6.90;92.50;;;;;;5063293;28;20557;-79
2022/04/11 04:13:06;;;;;;;2.53;2.33;;;7.20;91.40;;;;;;5063986;28;20219;-79
2022/04/11 04:15:34;;;;;;;4.88;2.80;;;6.90;93.30;;;;;;5055114;28;20458;-80
2022/04/11 04:18:02;;;;;;;2.70;2.53;;;7.00;91.00;;;;;;5061578;28;20283;-78
2022/04/11 04:20:30;;;;;;;3.27;2.33;;;7.00;90.60;;;;;;5062828;28;20443;-81
2022/04/11 04:22:59;;;;;;;2.70;2.27;;;6.90;90.40;;;;;;5062416;28;20482;-79
2022/04/11 04:25:29;;;;;;;3.22;2.58;;;7.20;90.20;;;;;;5061900;28;20521;-78
2022/04/11 04:27:57;;;;;;;3.30;3.00;;;6.80;91.00;;;;;;5062289;28;20200;-80
2022/04/11 04:30:28;;;;;;;3.40;2.90;;;6.70;91.30;;;;;;5058229;28;20703;-80
2022/04/11 04:32:57;;;;;;;3.05;2.75;;;6.80;94.00;;;;;;5063759;28;20509;-79
2022/04/11 04:35:26;;;;;;;3.47;2.70;;;6.70;95.60;;;;;;5060544;28;20711;-79
2022/04/11 04:37:54;;;;;;;3.10;2.83;;;6.70;95.10;;;;;;5054613;28;20521;-78
2022/04/11 04:40:22;;;;;;;4.17;3.03;;;6.60;95.50;;;;;;5060235;28;20201;-78
2022/04/11 04:42:51;;;;;;;3.15;2.78;;;6.70;95.60;;;;;;5059156;28;20533;-77
2022/04/11 04:45:19;;;;;;;8.23;5.37;;;6.70;95.50;;;;;;5060943;28;20205;-78
2022/04/11 04:47:49;;;;;;;14.70;9.20;;;6.80;99.90;;;;;;5058997;28;20559;-78
2022/04/11 04:50:17;;;;;;;15.77;10.07;;;6.80;94.10;;;;;;5063158;28;20449;-78
2022/04/11 04:52:45;;;;;;;13.20;9.03;;;6.80;93.60;;;;;;5061957;28;20219;-78
2022/04/11 04:55:13;;;;;;;15.30;8.77;;;6.80;93.90;;;;;;5062184;28;20454;-78
2022/04/11 04:57:41;;;;;;;9.52;6.85;;;6.90;94.50;;;;;;5058432;28;20504;-77
2022/04/11 05:00:10;;;;;;;6.55;4.90;;;7.00;91.80;;;;;;5062097;28;20199;-80
2022/04/11 05:02:39;;;;;;;8.95;5.10;;;7.00;91.10;;;;;;5061203;28;20224;-78
2022/04/11 05:05:11;;;;;;;6.30;4.43;;;6.90;90.00;;;;;;5061520;28;20201;-78
2022/04/11 05:07:39;;;;;;;8.13;4.85;;;6.90;89.60;;;;;;5059039;28;20216;-78
2022/04/11 05:10:14;;;;;;;8.35;4.10;;;6.80;90.40;;;;;;5059551;28;20237;-77
2022/04/11 05:12:44;;;;;;;7.10;4.70;;;7.00;91.90;;;;;;5055417;28;20201;-77
2022/04/11 05:15:13;;;;;;;5.93;4.53;;;6.80;92.30;;;;;;5055036;28;20455;-77
2022/04/11 05:17:41;;;;;;;6.65;4.88;;;6.90;92.30;;;;;;5052129;28;20471;-77
2022/04/11 05:20:11;;;;;;;4.77;4.10;;;6.80;92.30;;;;;;5055351;28;20197;-78
2022/04/11 05:22:40;;;;;;;6.07;4.33;;;6.70;92.80;;;;;;5056347;28;20459;-79
2022/04/11 05:25:09;;;;;;;8.10;4.20;;;6.60;91.10;;;;;;5065105;28;20543;-79
2022/04/11 05:27:37;;;;;;;4.47;3.53;;;6.50;93.20;;;;;;5064440;28;20205;-78
2022/04/11 05:30:06;;;;;;;5.53;4.38;;;6.40;95.00;;;;;;5064910;28;20204;-78
2022/04/11 05:32:34;;;;;;;4.28;3.88;;;6.50;95.10;;;;;;5067085;28;20215;-78
2022/04/11 05:35:03;;;;;;;5.47;4.35;;;6.50;95.70;;;;;;5057822;28;20222;-78
2022/04/11 05:37:32;;;;;;;6.63;4.03;;;6.80;95.50;;;;;;5059386;28;20216;-78
2022/04/11 05:40:01;;;;;;;4.63;3.67;;;6.60;95.80;;;;;;5061429;28;20474;-79
2022/04/11 05:42:29;;;;;;;7.90;3.72;;;6.60;96.90;;;;;;5053203;28;20197;-78
2022/04/11 05:44:57;;;;;;;4.38;3.85;;;6.60;96.20;;;;;;5052905;28;20239;-79
2022/04/11 05:47:25;;;;;;;5.90;4.80;;;6.60;95.90;;;;;;5052129;28;20553;-79
2022/04/11 05:49:53;;;;;;;5.63;4.80;;;6.60;96.80;;;;;;5049811;28;20465;-79
2022/04/11 05:52:21;;;;;;;3.97;3.67;;;6.60;96.00;;;;;;5062566;28;20242;-79
2022/04/11 05:54:51;;;;;;;4.25;3.80;;;6.70;96.20;;;;;;5058924;28;20217;-79
2022/04/11 05:57:19;;;;;;;7.13;4.47;;;6.80;96.60;;;;;;5063216;28;20212;-79
2022/04/11 05:59:47;;;;;;;3.50;3.30;;;6.80;97.10;;;;;;5060753;28;20631;-83
2022/04/11 06:02:16;;;;;;;3.70;3.25;;;6.70;96.10;;;;;;5060199;28;20832;-79
2022/04/11 06:04:44;;;;;;;5.22;2.78;;;6.90;96.00;;;;;;5058826;28;20220;-79
2022/04/11 06:07:12;;;;;;;3.00;2.67;;;6.90;92.80;;;;;;5056251;28;20208;-79
2022/04/11 06:09:42;;;;;;;3.77;3.30;;;7.10;91.50;;;;;;5051321;28;20699;-79
2022/04/11 06:12:17;;;;;;;4.70;3.37;;;7.20;83.90;;;;;;5062035;28;20451;-79
2022/04/11 06:14:45;;;;;;;3.80;2.57;;;7.40;81.10;;;;;;5057234;28;20507;-78
2022/04/11 06:17:13;;;;;;;3.97;2.60;;;7.50;79.50;;;;;;5059196;28;20450;-78
2022/04/11 06:19:41;;;;;;;6.43;3.87;;;7.70;78.10;;;;;;5059496;28;20490;-79
2022/04/11 06:22:11;;;;;;;3.50;2.23;;;7.90;74.10;;;;;;5062075;28;20456;-80
2022/04/11 06:24:44;;;;;;;3.20;2.10;;;8.10;66.50;;;;;;5058151;28;20483;-79
2022/04/11 06:27:12;;;;;;;4.10;2.30;;;8.10;66.90;;;;;;5060937;28;20455;-79
2022/04/11 06:29:42;;;;;;;2.63;2.23;;;8.20;65.10;;;;;;5063311;28;20513;-80
2022/04/11 06:32:10;;;;;;;2.77;2.50;;;8.40;59.90;;;;;;5062266;28;20470;-80
2022/04/11 06:34:39;;;;;;;3.40;2.53;;;8.50;61.30;;;;;;5058746;28;20478;-79
2022/04/11 06:37:07;;;;;;;6.30;2.10;;;8.70;57.90;;;;;;5059878;28;20463;-80
2022/04/11 06:39:35;;;;;;;3.00;2.23;;;8.80;58.00;;;;;;5055217;28;20503;-80
2022/04/11 06:42:04;;;;;;;2.70;2.27;;;9.00;53.70;;;;;;5056063;28;20465;-79
2022/04/11 06:44:32;;;;;;;2.40;2.20;;;9.20;50.00;;;;;;5053337;28;20468;-79
2022/04/11 06:47:02;;;;;;;2.40;2.20;;;9.30;48.20;;;;;;5057315;28;20454;-80
2022/04/11 06:49:30;;;;;;;2.90;1.97;;;9.30;48.00;;;;;;5061150;28;20491;-80
2022/04/11 06:51:59;;;;;;;3.23;2.27;;;9.50;47.70;;;;;;5059483;28;21072;-79
2022/04/11 06:54:27;;;;;;;3.80;2.30;;;9.60;41.60;;;;;;5060385;28;20479;-79
2022/04/11 06:56:56;;;;;;;2.70;1.77;;;9.60;37.10;;;;;;5060399;28;20454;-80
2022/04/11 06:59:24;;;;;;;2.30;2.10;;;9.70;38.60;;;;;;5061550;28;20561;-79
2022/04/11 07:01:52;;;;;;;3.43;2.60;;;9.70;33.50;;;;;;5056749;28;20465;-78
2022/04/11 07:04:22;;;;;;;1.63;1.50;;;9.40;33.80;;;;;;5059984;28;20477;-78
2022/04/11 07:06:51;;;;;;;3.70;2.20;;;9.80;32.10;;;;;;5056330;28;21443;-78
2022/04/11 07:09:19;;;;;;;5.77;2.20;;;9.90;32.30;;;;;;5058423;28;20520;-77
2022/04/11 07:11:47;;;;;;;4.50;2.53;;;9.90;30.10;;;;;;5060607;28;20460;-78
2022/04/11 07:14:15;;;;;;;2.37;2.17;;;10.10;30.10;;;;;;5059989;28;21425;-79
2022/04/11 07:16:44;;;;;;;2.63;2.50;;;10.10;29.60;;;;;;5061512;28;21136;-77
2022/04/11 07:19:12;;;;;;;3.80;1.83;;;10.40;29.80;;;;;;5057694;28;20487;-78
2022/04/11 07:21:42;;;;;;;2.53;1.70;;;10.40;28.60;;;;;;5059006;28;20930;-78
2022/04/11 07:24:10;;;;;;;1.90;1.80;;;10.50;29.20;;;;;;5057126;28;20471;-77
2022/04/11 07:26:40;;;;;;;2.30;1.57;;;10.50;26.30;;;;;;5054072;28;20888;-78
2022/04/11 07:29:08;;;;;;;2.93;2.00;;;10.60;27.80;;;;;;5056994;28;20546;-77
2022/04/11 07:31:37;;;;;;;2.60;1.90;;;10.70;26.20;;;;;;5056385;28;20531;-78
2022/04/11 07:34:05;;;;;;;1.63;1.50;;;10.80;26.20;;;;;;5058610;28;20502;-77
2022/04/11 07:36:34;;;;;;;3.33;2.20;;;10.90;28.20;;;;;;5056136;28;20462;-78
2022/04/11 07:39:03;;;;;;;2.80;2.27;;;11.10;26.20;;;;;;5062549;28;21067;-76
2022/04/11 07:41:31;;;;;;;2.00;1.80;;;11.50;26.50;;;;;;5062948;28;20465;-78
2022/04/11 07:43:59;;;;;;;1.70;1.57;;;11.50;29.80;;;;;;5064635;28;21028;-77
2022/04/11 07:46:28;;;;;;;2.63;2.13;;;11.60;27.80;;;;;;5059954;28;21092;-77
2022/04/11 07:48:56;;;;;;;4.90;2.00;;;11.70;25.60;;;;;;5063203;28;20560;-78
2022/04/11 07:51:24;;;;;;;2.60;2.07;;;11.80;26.00;;;;;;5061834;28;20454;-78
2022/04/11 07:53:52;;;;;;;2.00;1.90;;;12.00;26.10;;;;;;5067606;28;21071;-77
2022/04/11 07:56:22;;;;;;;2.27;2.07;;;12.00;26.50;;;;;;5060394;28;20462;-79
2022/04/11 07:58:50;;;;;;;3.00;2.20;;;12.00;23.90;;;;;;5062653;28;20473;-77
2022/04/11 08:01:22;;;;;;;1.63;1.50;;;12.00;23.50;;;;;;5063497;28;20458;-77
2022/04/11 08:03:50;;;;;;;2.20;2.00;;;11.90;22.70;;;;;;5060209;28;20490;-78
2022/04/11 08:06:19;;;;;;;1.80;1.70;;;11.80;21.40;;;;;;5062220;28;20459;-77
2022/04/11 08:08:47;;;;;;;2.90;2.07;;;11.80;21.90;;;;;;5061965;28;21020;-78
2022/04/11 08:11:16;;;;;;;2.80;1.80;;;11.80;20.30;;;;;;5059721;28;20455;-78
2022/04/11 08:13:50;;;;;;;2.13;1.50;;;11.70;19.20;;;;;;5060451;28;21019;-78
2022/04/11 08:16:19;;;;;;;3.00;2.13;;;11.70;20.80;;;;;;5060042;28;20455;-78
2022/04/11 08:18:47;;;;;;;1.90;1.80;;;11.70;17.00;;;;;;5057971;28;20576;-77
2022/04/11 08:21:15;;;;;;;2.97;1.77;;;11.50;16.00;;;;;;5060259;28;20469;-78
2022/04/11 08:23:43;;;;;;;2.33;1.83;;;11.40;15.20;;;;;;5064030;28;21140;-77
2022/04/11 08:26:12;;;;;;;3.27;1.43;;;11.50;13.30;;;;;;5060033;28;20456;-79
2022/04/11 08:28:40;;;;;;;3.33;1.80;;;11.30;16.50;;;;;;5063428;28;20924;-77
2022/04/11 08:31:09;;;;;;;2.43;1.40;;;11.50;16.10;;;;;;5065402;28;20862;-78
2022/04/11 08:33:38;;;;;;;7.70;1.80;;;11.40;15.90;;;;;;5066223;28;20473;-78
2022/04/11 08:36:06;;;;;;;2.67;2.00;;;11.50;19.10;;;;;;5051966;28;20460;-78
2022/04/11 08:38:34;;;;;;;1.50;1.40;;;11.60;17.00;;;;;;5068226;28;20456;-78
2022/04/11 08:41:04;;;;;;;2.47;1.40;;;11.70;18.50;;;;;;5068097;28;20466;-77
2022/04/11 08:43:33;;;;;;;2.40;2.20;;;11.80;26.30;;;;;;5061488;28;20474;-77
2022/04/11 08:46:05;;;;;;;2.87;1.73;;;12.00;20.40;;;;;;5059340;28;20451;-78
2022/04/11 08:48:35;;;;;;;2.30;1.33;;;12.00;18.80;;;;;;5053125;28;20461;-77
2022/04/11 08:51:09;;;;;;;1.93;1.50;;;12.10;20.60;;;;;;5061667;28;20545;-78
2022/04/11 08:53:38;;;;;;;1.43;1.33;;;12.40;19.90;;;;;;5059552;28;20476;-78
2022/04/11 08:56:06;;;;;;;5.87;1.60;;;12.10;16.40;;;;;;5059881;28;20451;-78
2022/04/11 08:58:34;;;;;;;2.70;1.63;;;12.20;18.50;;;;;;5055167;28;20467;-77
2022/04/11 09:01:02;;;;;;;4.30;2.00;;;12.20;16.00;;;;;;5057225;28;20460;-77
2022/04/11 09:03:31;;;;;;;2.07;1.40;;;12.10;13.50;;;;;;5055833;28;20541;-78
2022/04/11 09:06:09;;;;;;;2.20;1.40;;;12.00;13.80;;;;;;5056906;28;20808;-78
2022/04/11 09:08:41;;;;;;;2.97;1.70;;;12.00;13.70;;;;;;5061463;28;20515;-78
2022/04/11 09:11:11;;;;;;;1.87;1.40;;;11.90;11.60;;;;;;5056750;28;20456;-78
2022/04/11 09:13:51;;;;;;;2.30;1.50;;;12.00;15.30;;;;;;5061231;28;21007;-77
2022/04/11 09:16:20;;;;;;;2.70;1.17;;;12.10;11.20;;;;;;5056772;28;20462;-78
2022/04/11 09:18:49;;;;;;;2.40;1.63;;;12.10;14.90;;;;;;5059161;28;21164;-79
2022/04/11 09:21:21;;;;;;;1.80;1.70;;;12.10;12.40;;;;;;5061926;28;20459;-78
2022/04/11 09:23:49;;;;;;;1.77;1.63;;;12.20;15.40;;;;;;5059531;28;21368;-78
2022/04/11 09:26:19;;;;;;;2.40;1.60;;;12.20;25.60;;;;;;5058244;28;20465;-77
2022/04/11 09:29:04;;;;;;;5.03;1.70;;;12.30;14.50;;;;;;5058896;28;20972;-78
2022/04/11 09:31:32;;;;;;;1.93;1.50;;;12.30;11.80;;;;;;5061372;28;20464;-78
2022/04/11 09:34:14;;;;;;;3.40;1.67;;;12.40;14.10;;;;;;5060772;28;20481;-78
2022/04/11 09:36:49;;;;;;;1.60;1.20;;;12.50;14.20;;;;;;5055256;28;20466;-78
2022/04/11 09:39:29;;;;;;;2.63;2.00;;;12.50;12.70;;;;;;5061413;28;20480;-78
2022/04/11 09:42:04;;;;;;;1.97;1.30;;;12.60;13.30;;;;;;5060530;28;20458;-78
2022/04/11 09:44:34;;;;;;;1.70;1.40;;;12.50;10.30;;;;;;5061515;28;20510;-78
2022/04/11 09:47:21;;;;;;;3.10;1.50;;;12.40;10.40;;;;;;5061510;28;20621;-78
2022/04/11 09:49:50;;;;;;;2.60;1.43;;;12.40;10.80;;;;;;5059468;28;20439;-78
2022/04/11 09:52:20;;;;;;;2.43;1.67;;;12.40;9.90;;;;;;5060548;28;20456;-78
2022/04/11 09:54:50;;;;;;;2.00;1.43;;;12.40;7.10;;;;;;5056853;28;20475;-78
2022/04/11 09:57:19;;;;;;;2.00;1.47;;;12.20;6.20;;;;;;5055526;28;20447;-78
2022/04/11 09:59:49;;;;;;;2.53;1.33;;;12.30;9.30;;;;;;5061381;28;20489;-78
2022/04/11 10:02:35;;;;;;;1.57;1.20;;;12.50;16.00;;;;;;5061677;28;20454;-78
2022/04/11 10:05:04;;;;;;;1.90;1.70;;;12.80;15.90;;;;;;5058074;28;20598;-78
2022/04/11 10:07:34;;;;;;;2.77;1.67;;;12.70;22.80;;;;;;5062290;28;20519;-78
2022/04/11 10:10:03;;;;;;;4.80;1.60;;;12.90;12.10;;;;;;5059453;28;20451;-76
2022/04/11 10:12:33;;;;;;;2.47;1.50;;;12.90;12.90;;;;;;5058241;28;20465;-78
2022/04/11 10:15:02;;;;;;;1.60;1.50;;;12.90;13.70;;;;;;5057874;28;20974;-78
2022/04/11 10:17:30;;;;;;;2.43;1.50;;;12.80;12.20;;;;;;5060727;28;20458;-78
2022/04/11 10:20:00;;;;;;;2.20;1.33;;;12.70;11.10;;;;;;5065056;28;20881;-78
2022/04/11 10:22:28;;;;;;;1.37;1.20;;;12.90;9.60;;;;;;5056447;28;20463;-78
2022/04/11 10:25:06;;;;;;;2.50;1.13;;;13.10;9.20;;;;;;5059603;28;20478;-77
2022/04/11 10:27:37;;;;;;;2.23;1.30;;;13.10;9.50;;;;;;5062175;28;20454;-78
2022/04/11 10:30:28;;;;;;;2.63;1.40;;;13.10;19.80;;;;;;5060686;28;20845;-78
2022/04/11 10:32:57;;;;;;;1.73;1.17;;;13.20;8.80;;;;;;5061440;28;20459;-78
2022/04/11 10:35:39;;;;;;;2.87;1.30;;;13.30;10.70;;;;;;5057448;28;20451;-77
2022/04/11 10:38:09;;;;;;;2.63;1.30;;;13.40;10.80;;;;;;5059968;28;20441;-78
2022/04/11 10:40:46;;;;;;;2.30;1.23;;;13.50;8.90;;;;;;5059609;28;20486;-78
2022/04/11 10:43:34;;;;;;;1.20;1.03;;;13.30;7.00;;;;;;5057053;28;20482;-78
2022/04/11 10:46:03;;;;;;;1.70;1.20;;;13.20;5.90;;;;;;5059138;28;20451;-77
2022/04/11 10:48:58;;;;;;;3.27;1.27;;;13.30;10.20;;;;;;5060814;28;21207;-78
2022/04/11 10:51:27;;;;;;;3.07;1.20;;;13.50;8.50;;;;;;5058182;28;21250;-79
2022/04/11 10:54:18;;;;;;;3.97;1.30;;;13.50;7.40;;;;;;5055731;28;20878;-79
2022/04/11 10:57:07;;;;;;;2.37;1.23;;;13.50;6.40;;;;;;5058088;28;20444;-78
2022/04/11 11:00:09;;;;;;;2.13;1.70;;;13.50;6.10;;;;;;5054464;28;20495;-78
2022/04/11 11:03:04;;;;;;;2.07;1.97;;;13.50;4.60;;;;;;5052264;28;20831;-78
2022/04/11 11:05:35;;;;;;;1.45;1.10;;;13.60;4.60;;;;;;5056588;28;20477;-81
2022/04/11 11:08:27;;;;;;;1.83;0.90;;;13.70;7.30;;;;;;5056156;28;20200;-82
2022/04/11 11:10:57;;;;;;;1.50;1.20;;;13.90;9.10;;;;;;5062497;28;20454;-80
2022/04/11 11:13:30;;;;;;;1.83;1.10;;;14.00;6.10;;;;;;5062810;28;20517;-82
2022/04/11 11:15:59;;;;;;;3.20;1.20;;;14.00;6.00;;;;;;5064393;28;20459;-82
2022/04/11 11:18:48;;;;;;;1.63;1.10;;;14.00;5.70;;;;;;5061168;28;20459;-83
2022/04/11 11:21:18;;;;;;;1.67;1.17;;;14.10;7.50;;;;;;5064437;28;20476;-84
2022/04/11 11:24:10;;;;;;;1.10;1.00;;;14.10;7.10;;;;;;5065397;28;20511;-82
2022/04/11 11:26:40;;;;;;;1.73;1.53;;;14.20;6.70;;;;;;5065182;28;20468;-82
2022/04/11 11:29:16;;;;;;;2.60;1.20;;;14.20;12.40;;;;;;5065462;28;20447;-85
2022/04/11 11:31:46;;;;;;;2.33;1.43;;;14.40;8.70;;;;;;5072349;28;20194;-84
2022/04/11 11:34:16;;;;;;;1.20;1.10;;;14.50;8.30;;;;;;5068816;28;20504;-84
2022/04/11 11:36:44;;;;;;;2.30;1.17;;;14.50;7.90;;;;;;5067965;28;20456;-84
2022/04/11 11:39:13;;;;;;;1.30;1.20;;;14.60;8.90;;;;;;5073176;28;20443;-83
2022/04/11 11:41:42;;;;;;;1.73;1.10;;;14.50;15.70;;;;;;5068698;28;20491;-84
2022/04/11 11:44:11;;;;;;;1.10;1.00;;;14.60;7.70;;;;;;5069406;28;21004;-85
2022/04/11 11:46:55;;;;;;;2.47;1.07;;;14.50;5.00;;;;;;5070535;28;20919;-82
2022/04/11 11:49:25;;;;;;;1.63;1.10;;;14.50;6.50;;;;;;5060774;28;20452;-84
2022/04/11 11:51:54;;;;;;;1.63;1.00;;;14.60;4.30;;;;;;5068571;28;20471;-82
2022/04/11 11:54:36;;;;;;;2.20;1.00;;;14.60;2.20;;;;;;5071501;28;20817;-83
2022/04/11 11:57:12;;;;;;;1.53;1.10;;;14.60;2.20;;;;;;5068384;28;20979;-82
2022/04/11 11:59:51;;;;;;;1.43;1.10;;;14.70;4.70;;;;;;5066736;28;20465;-83
2022/04/11 12:05:22;;;;;;;1.10;0.97;;;14.80;4.10;;;;;;5068444;28;20568;-85
2022/04/11 12:07:52;;;;;;;1.20;1.10;;;14.90;5.30;;;;;;5064408;28;20466;-85
2022/04/11 12:10:21;;;;;;;2.20;1.20;;;15.00;6.70;;;;;;5069076;28;20457;-86
2022/04/11 12:12:49;;;;;;;2.60;1.10;;;15.00;5.60;;;;;;5072745;28;20457;-85
2022/04/11 12:15:18;;;;;;;3.13;1.40;;;15.10;8.90;;;;;;5067570;28;20802;-85
2022/04/11 12:17:50;;;;;;;1.63;1.17;;;15.10;5.50;;;;;;5070780;28;20466;-83
2022/04/11 12:20:20;;;;;;;2.57;1.40;;;15.10;4.80;;;;;;5068738;28;20469;-78
2022/04/11 12:23:03;;;;;;;1.20;1.10;;;15.00;3.90;;;;;;5066336;28;20957;-83
2022/04/11 12:25:33;;;;;;;1.70;1.45;;;15.10;2.40;;;;;;5064952;28;20521;-79
2022/04/11 12:28:16;;;;;;;2.40;1.30;;;15.10;2.40;;;;;;5068154;28;20228;-83
2022/04/11 12:30:46;;;;;;;0.90;0.90;;;15.20;4.60;;;;;;5063735;28;20450;-83
2022/04/11 12:33:37;;;;;;;1.50;1.40;;;15.20;5.80;;;;;;5061212;28;20508;-80
2022/04/11 12:36:07;;;;;;;2.37;1.30;;;15.30;4.70;;;;;;5062537;28;20454;-79
2022/04/11 12:38:57;;;;;;;1.77;1.23;;;15.30;6.00;;;;;;5064059;28;20465;-81
2022/04/11 12:41:30;;;;;;;2.03;0.90;;;15.50;6.40;;;;;;5059426;28;20511;-81
2022/04/11 12:44:03;;;;;;;1.52;1.30;;;15.50;6.70;;;;;;5062609;28;20443;-82
2022/04/11 12:46:32;;;;;;;1.90;1.70;;;15.50;6.40;;;;;;5062912;28;20253;-81
2022/04/11 12:49:02;;;;;;;1.33;1.13;;;15.50;4.80;;;;;;5063873;28;20458;-82
2022/04/11 12:51:30;;;;;;;1.10;1.00;;;15.40;3.40;;;;;;5059399;28;20454;-82
2022/04/11 12:54:06;;;;;;;3.47;1.00;;;15.50;8.10;;;;;;5067505;28;20469;-82
2022/04/11 12:56:50;;;;;;;1.00;0.73;;;15.60;2.70;;;;;;5069489;28;20450;-81
2022/04/11 12:59:29;;;;;;;0.90;0.80;;;15.70;9.20;;;;;;5061203;28;21029;-82
2022/04/11 13:02:04;;;;;;;0.83;0.83;;;15.70;7.30;;;;;;5068343;28;20523;-82
2022/04/11 13:04:34;;;;;;;1.13;1.00;;;15.80;9.70;;;;;;5063210;28;20469;-80
2022/04/11 13:07:03;;;;;;;1.40;0.90;;;15.90;7.80;;;;;;5061173;28;20217;-80
2022/04/11 13:09:32;;;;;;;1.63;0.80;;;16.00;6.30;;;;;;5062938;28;20465;-80
2022/04/11 13:12:00;;;;;;;1.23;0.90;;;16.00;7.10;;;;;;5060400;28;20461;-80
2022/04/11 13:14:34;;;;;;;1.90;0.80;;;16.10;6.90;;;;;;5059390;28;21021;-80